Terminal Aerodrome Forecast
Issued by NWS Atlanta, GA

Home | Current Version | Previous Version | Text Only | Print | Product List | Glossary On
Versions: 1 2 3 4 5 6 7 8 9 10 11 12 13 14 15 16 17 18 19 20 21 22 23 24 25 26 27 28 29 30 31
000
FTUS42 KFFC 230316 AAA
TAFMCN
TAF AMD
KMCN 230316Z 2303/2324 25012G20KT P6SM SCT030
     FM230430 23010G20KT 5SM -SHRA BR BKN025
     FM231200 26013G23KT 3SM BR BKN015
     FM231500 30016G26KT P6SM BKN025
     FM232200 30012G25KT P6SM SCT030=

USA.gov is the U.S. government's official web portal to all federal, state and local government web resources and services.